Impacts METAR Board
IDs:

KPHX - Phoenix/Sky Harbor, AZ, US

Updated at: 1800 UTC 22 Sep 2018
Potential Impact None Slight Moderate High
Time 22/06Z 22/07Z 22/08Z 22/09Z 22/10Z 22/11Z 22/12Z 22/13Z 22/14Z 22/15Z 22/16Z 22/17Z 22/18Z
Temp92 88 85 84 82 82 82 82 82 84 88 93 94
Dewpt51 54 54 54 56 56 56 57 58 56 58 58 58
Altim29.90 29.90 29.90 29.90 29.90 29.90 29.91 29.92 29.94 29.96 29.96 29.96 29.95
VIS10 10 10 10 10 10 10 10 10 10 10 10 10
CIG-- -- -- -- -- -- -- -- 130 130 140 -- --
CoverCLRCLRCLRCLRFEWSCTSCTSCTBKNBKNBKNFEWFEW
FltCatVFRVFRVFRVFRVFRVFRVFRVFRVFRVFRVFRVFRVFR
WX--------------------------
WDir340701109011014011013014011090120110
WSpd3 6 6 6 5 8 5 7 4 6 7 9 5
WGst-- -- -- -- -- -- -- -- -- -- -- -- --
Raw hourly METARs
KPHX 220551Z 34003KT 10SM CLR 33/11 A2990 RMK AO2 SLP103 T03330106 10383 20322 51008
KPHX 220651Z 07006KT 10SM CLR 31/12 A2990 RMK AO2 SLP103 T03110122 403830256
KPHX 220751Z 11006KT 10SM CLR 29/12 A2990 RMK AO2 SLP106 T02940122
KPHX 220851Z 09006KT 10SM CLR 29/12 A2990 RMK AO2 SLP103 T02890122 50000
KPHX 220951Z 11005KT 10SM FEW200 28/13 A2990 RMK AO2 SLP103 T02780133
KPHX 221051Z 14008KT 10SM FEW130 SCT250 28/13 A2990 RMK AO2 SLP103 T02780133
KPHX 221151Z 11005KT 10SM SCT250 28/13 A2991 RMK AO2 SLP106 T02780133 10333 20272 53003
KPHX 221251Z 13007KT 10SM FEW130 SCT150 SCT200 28/14 A2992 RMK AO2 SLP111 T02780139
KPHX 221351Z 14004KT 10SM BKN130 28/14 A2994 RMK AO2 SLP119 T02780144
KPHX 221451Z 11006KT 10SM BKN130 29/13 A2996 RMK AO2 SLP123 T02890133 51016
KPHX 221551Z 09007KT 10SM BKN140 BKN180 31/14 A2996 RMK AO2 SLP125 T03110144
KPHX 221651Z 12009KT 10SM FEW090 FEW140 34/14 A2996 RMK AO2 SLP124 T03390144
KPHX 221751Z 11005KT 10SM FEW090 34/14 A2995 RMK AO2 SLP119 T03440144 10350 20278 58003



Page loaded:  18:55 UTC  |   11:55 AM Pacific  |   12:55 PM Mountain  |   01:55 PM Central  |   02:55 PM Eastern

 

ADVISORIES

FORECASTS

FORECASTS

OBSERVATIONS

USER TOOLS

ABOUT US